createdAt,value
2024-05-09T00:01:56.141Z,6.28
2024-05-09T00:04:59.034Z,6.22
2024-05-09T00:08:01.779Z,6.22
2024-05-09T00:11:04.390Z,6.22
2024-05-09T00:14:06.830Z,6.18
2024-05-09T00:17:09.268Z,6.15
2024-05-09T00:20:17.865Z,6.02
2024-05-09T00:23:26.416Z,5.99
2024-05-09T00:26:28.684Z,5.94
2024-05-09T00:29:34.461Z,5.90
2024-05-09T00:32:36.907Z,5.93
2024-05-09T00:35:39.929Z,6.09
2024-05-09T00:38:42.324Z,6.18
2024-05-09T00:41:44.581Z,6.28
2024-05-09T00:44:46.838Z,6.09
2024-05-09T00:47:49.375Z,5.99
2024-05-09T00:50:54.161Z,5.95
2024-05-09T00:53:57.074Z,5.87
2024-05-09T00:56:59.517Z,5.84
2024-05-09T01:00:06.101Z,5.77
2024-05-09T01:03:12.892Z,5.71
2024-05-09T01:06:16.503Z,5.69
2024-05-09T01:09:18.873Z,5.67
2024-05-09T01:12:21.177Z,5.67
2024-05-09T01:15:23.859Z,5.78
2024-05-09T01:18:26.653Z,5.74
2024-05-09T01:21:29.028Z,5.54
2024-05-09T01:24:31.282Z,5.52
2024-05-09T01:27:33.775Z,5.54
2024-05-09T01:30:37.535Z,5.50
2024-05-09T01:33:40.562Z,5.49
2024-05-09T01:36:42.857Z,5.47
2024-05-09T01:39:45.268Z,5.52
2024-05-09T01:42:47.806Z,5.56
2024-05-09T01:45:50.022Z,5.49
2024-05-09T01:48:52.560Z,5.42
2024-05-09T01:51:54.813Z,5.38
2024-05-09T01:54:57.078Z,5.32
2024-05-09T01:57:59.244Z,5.32
2024-05-09T02:01:02.528Z,5.26
2024-05-09T02:04:04.935Z,5.11
2024-05-09T02:07:07.298Z,5.09
2024-05-09T02:10:16.197Z,5.05
2024-05-09T02:13:22.824Z,4.99
2024-05-09T02:16:25.075Z,5.02
2024-05-09T02:19:27.499Z,4.95
2024-05-09T02:22:29.769Z,4.94
2024-05-09T02:25:32.219Z,4.87
2024-05-09T02:28:34.580Z,4.81
2024-05-09T02:31:36.770Z,4.67
2024-05-09T02:34:39.067Z,4.67
2024-05-09T02:37:41.361Z,4.73
2024-05-09T02:40:43.611Z,4.71
2024-05-09T02:43:45.851Z,4.64
2024-05-09T02:46:48.122Z,4.61
2024-05-09T02:49:50.393Z,4.59
2024-05-09T02:52:52.608Z,4.54
2024-05-09T02:55:55.115Z,4.53
2024-05-09T02:58:57.448Z,4.50
2024-05-09T03:01:59.860Z,4.52
2024-05-09T03:05:02.132Z,4.53
2024-05-09T03:08:04.911Z,4.60
2024-05-09T03:11:07.537Z,4.53
2024-05-09T03:14:09.911Z,4.49
2024-05-09T03:17:12.442Z,4.49
2024-05-09T03:20:23.182Z,4.41
2024-05-09T03:23:26.740Z,4.36
2024-05-09T03:30:31.151Z,4.25
2024-05-09T03:33:42.653Z,4.29
2024-05-09T03:36:45.626Z,4.21
2024-05-09T03:39:47.890Z,4.18
2024-05-09T03:42:50.355Z,4.26
2024-05-09T03:45:52.570Z,4.29
2024-05-09T03:48:54.937Z,4.31
2024-05-09T03:51:57.274Z,4.25
2024-05-09T03:54:59.591Z,4.21
2024-05-09T03:58:01.914Z,4.21
2024-05-09T04:01:05.563Z,4.24
2024-05-09T04:04:09.358Z,4.28
2024-05-09T04:07:11.785Z,4.15
2024-05-09T04:10:23.659Z,4.19
2024-05-09T04:13:30.026Z,4.32
2024-05-09T04:16:32.323Z,4.41
2024-05-09T04:19:34.583Z,4.48
2024-05-09T04:22:36.825Z,4.52
2024-05-09T04:25:42.006Z,4.63
2024-05-09T04:28:44.327Z,4.64
2024-05-09T04:31:46.572Z,4.71
2024-05-09T04:34:48.798Z,4.76
2024-05-09T04:37:51.056Z,4.84
2024-05-09T04:40:53.404Z,5.02
2024-05-09T04:43:55.808Z,5.18
2024-05-09T04:46:58.105Z,5.23
2024-05-09T04:50:00.687Z,5.40
2024-05-09T04:53:06.213Z,5.54
2024-05-09T04:56:12.309Z,5.64
2024-05-09T04:59:15.749Z,5.74
2024-05-09T05:02:18.600Z,5.86
2024-05-09T05:05:21.413Z,5.94
2024-05-09T05:08:24.871Z,5.99
2024-05-09T05:11:28.969Z,6.06
2024-05-09T05:14:32.045Z,6.16
2024-05-09T05:17:35.217Z,6.33
2024-05-09T05:20:39.422Z,6.57
2024-05-09T05:23:42.297Z,6.77
2024-05-09T05:26:44.897Z,6.89
2024-05-09T05:29:47.497Z,7.04
2024-05-09T05:32:49.991Z,7.26
2024-05-09T05:35:52.361Z,7.40
2024-05-09T05:38:54.694Z,7.60
2024-05-09T05:41:56.872Z,7.77
2024-05-09T05:44:59.052Z,7.87
2024-05-09T05:48:04.224Z,8.06
2024-05-09T05:51:07.810Z,8.23
2024-05-09T05:54:10.023Z,8.46
2024-05-09T05:57:13.689Z,8.68
2024-05-09T06:00:25.950Z,8.91
2024-05-09T06:03:32.827Z,9.12
2024-05-09T06:06:35.225Z,9.29
2024-05-09T06:09:38.280Z,9.51
2024-05-09T06:12:40.700Z,9.61
2024-05-09T06:15:43.772Z,9.48
2024-05-09T06:18:47.029Z,9.75
2024-05-09T06:21:49.550Z,10.10
2024-05-09T06:24:52.224Z,10.46
2024-05-09T06:27:54.818Z,10.77
2024-05-09T06:30:57.019Z,11.02
2024-05-09T06:33:59.572Z,11.13
2024-05-09T06:37:01.863Z,11.30
2024-05-09T06:40:07.231Z,11.49
2024-05-09T06:43:13.681Z,11.67
2024-05-09T06:46:16.046Z,11.86
2024-05-09T06:49:18.434Z,12.16
2024-05-09T06:52:20.759Z,12.37
2024-05-09T06:55:23.018Z,12.57
2024-05-09T06:58:25.203Z,12.73
2024-05-09T07:01:27.448Z,12.96
2024-05-09T07:04:29.957Z,13.18
2024-05-09T07:07:32.181Z,13.40
2024-05-09T07:10:36.273Z,13.57
2024-05-09T07:13:39.264Z,13.82
2024-05-09T07:16:41.399Z,14.01
2024-05-09T07:19:43.743Z,14.29
2024-05-09T07:22:45.986Z,14.51
2024-05-09T07:25:48.333Z,14.75
2024-05-09T07:28:50.920Z,15.06
2024-05-09T07:31:53.389Z,15.32
2024-05-09T07:34:55.708Z,15.56
2024-05-09T07:37:58.042Z,15.70
2024-05-09T07:41:00.479Z,15.94
2024-05-09T07:44:02.866Z,16.22
2024-05-09T07:48:14.394Z,16.49
2024-05-09T07:53:40.961Z,17.05
2024-05-09T07:56:47.225Z,17.39
2024-05-09T07:59:49.458Z,17.82
2024-05-09T08:02:51.634Z,17.98
2024-05-09T08:05:54.591Z,18.12
2024-05-09T08:08:59.145Z,18.50
2024-05-09T08:12:03.008Z,18.85
2024-05-09T08:15:05.810Z,18.95
2024-05-09T08:18:13.018Z,18.99
2024-05-09T08:21:15.304Z,19.08
2024-05-09T08:24:17.627Z,19.27
2024-05-09T08:27:19.831Z,19.57
2024-05-09T08:30:29.616Z,19.52
2024-05-09T08:33:37.929Z,19.46
2024-05-09T08:36:40.890Z,19.85
2024-05-09T08:39:43.696Z,19.97
2024-05-09T08:42:49.927Z,20.44
2024-05-09T08:45:52.408Z,20.35
2024-05-09T08:48:57.023Z,20.26
2024-05-09T08:51:59.419Z,20.39
2024-05-09T08:55:01.979Z,20.50
2024-05-09T08:58:05.980Z,20.78
2024-05-09T09:01:08.814Z,20.57
2024-05-09T09:04:12.131Z,20.94
2024-05-09T09:07:15.229Z,21.46
2024-05-09T09:10:28.912Z,21.41
2024-05-09T09:13:33.946Z,21.86
2024-05-09T09:16:37.615Z,22.02
2024-05-09T09:19:40.546Z,22.14
2024-05-09T09:22:43.968Z,22.45
2024-05-09T09:25:46.219Z,21.12
2024-05-09T09:28:48.497Z,21.35
2024-05-09T09:32:00.445Z,21.53
2024-05-09T09:35:02.708Z,22.06
2024-05-09T09:38:06.947Z,22.25
2024-05-09T09:41:13.105Z,22.08
2024-05-09T09:44:17.583Z,22.57
2024-05-09T09:47:20.355Z,22.16
2024-05-09T09:50:31.333Z,22.05
2024-05-09T09:53:38.455Z,22.93
2024-05-09T09:56:41.913Z,23.41
2024-05-09T09:59:47.155Z,23.45
2024-05-09T10:02:49.501Z,24.05
2024-05-09T10:05:52.724Z,23.32
2024-05-09T10:08:55.623Z,23.26
2024-05-09T10:12:09.815Z,23.84
2024-05-09T10:15:12.297Z,24.29
2024-05-09T10:18:15.693Z,23.73
2024-05-09T10:21:21.533Z,23.59
2024-05-09T10:24:23.823Z,23.49
2024-05-09T10:27:30.436Z,22.60
2024-05-09T10:30:36.170Z,23.56
2024-05-09T10:33:51.602Z,23.11
2024-05-09T10:36:55.225Z,22.94
2024-05-09T10:39:58.490Z,23.43
2024-05-09T10:43:04.532Z,23.35
2024-05-09T10:46:09.972Z,23.35
2024-05-09T10:49:15.279Z,22.95
2024-05-09T10:52:24.489Z,23.46
2024-05-09T10:55:27.581Z,23.29
2024-05-09T10:58:29.900Z,23.23
2024-05-09T11:01:32.432Z,23.98
2024-05-09T11:04:34.992Z,24.45
2024-05-09T11:07:37.399Z,23.66
2024-05-09T11:10:40.560Z,23.15
2024-05-09T11:13:42.888Z,25.24
2024-05-09T11:16:45.221Z,25.17
2024-05-09T11:19:47.579Z,25.27
2024-05-09T11:22:49.786Z,24.97
2024-05-09T11:25:56.825Z,25.55
2024-05-09T11:28:59.007Z,24.25
2024-05-09T11:32:01.372Z,23.78
2024-05-09T11:35:03.572Z,23.41
2024-05-09T11:38:06.101Z,24.46
2024-05-09T11:41:08.266Z,25.00
2024-05-09T11:44:10.475Z,25.82
2024-05-09T11:47:12.682Z,25.17
2024-05-09T11:50:22.551Z,25.63
2024-05-09T11:53:31.735Z,25.42
2024-05-09T11:56:34.112Z,24.84
2024-05-09T11:59:36.413Z,25.15
2024-05-09T12:02:38.657Z,25.96
2024-05-09T12:05:41.337Z,26.16
2024-05-09T12:08:44.090Z,24.77
2024-05-09T12:11:46.403Z,25.53
2024-05-09T12:14:48.690Z,26.14
2024-05-09T12:17:51.198Z,26.44
2024-05-09T12:20:53.526Z,26.57
2024-05-09T12:23:55.752Z,26.60
2024-05-09T12:26:58.038Z,25.08
2024-05-09T12:30:00.252Z,26.00
2024-05-09T12:33:02.623Z,26.63
2024-05-09T12:36:05.043Z,25.94
2024-05-09T12:39:09.232Z,24.97
2024-05-09T12:42:14.534Z,26.48
2024-05-09T12:45:21.684Z,26.82
2024-05-09T12:48:24.180Z,25.72
2024-05-09T12:51:26.507Z,26.63
2024-05-09T12:54:28.872Z,26.36
2024-05-09T12:57:31.000Z,26.28
2024-05-09T13:00:34.362Z,26.25
2024-05-09T13:03:37.143Z,25.37
2024-05-09T13:06:39.720Z,25.77
2024-05-09T13:09:42.174Z,26.49
2024-05-09T13:12:44.390Z,26.45
2024-05-09T13:15:46.664Z,27.04
2024-05-09T13:18:49.226Z,27.07
2024-05-09T13:21:51.643Z,26.22
2024-05-09T13:24:53.681Z,23.83
2024-05-09T13:27:57.388Z,22.70
2024-05-09T13:30:59.877Z,22.26
2024-05-09T13:34:02.464Z,21.95
2024-05-09T13:37:04.709Z,22.14
2024-05-09T13:40:12.007Z,22.55
2024-05-09T13:43:17.605Z,22.63
2024-05-09T13:46:20.428Z,22.56
2024-05-09T13:49:22.579Z,22.08
2024-05-09T13:52:26.287Z,22.87
2024-05-09T13:55:28.478Z,24.35
2024-05-09T13:58:30.709Z,25.04
2024-05-09T14:01:33.008Z,25.62
2024-05-09T14:04:35.371Z,26.25
2024-05-09T14:07:37.687Z,25.73
2024-05-09T14:10:44.457Z,25.89
2024-05-09T14:13:47.394Z,25.74
2024-05-09T14:16:49.758Z,25.50
2024-05-09T14:19:52.111Z,26.21
2024-05-09T14:22:54.548Z,26.36
2024-05-09T14:25:56.973Z,25.98
2024-05-09T14:28:59.068Z,25.97
2024-05-09T14:32:02.867Z,26.44
2024-05-09T14:35:05.263Z,26.25
2024-05-09T14:38:09.146Z,26.52
2024-05-09T14:41:13.403Z,26.62
2024-05-09T14:44:15.615Z,26.13
2024-05-09T14:47:18.526Z,26.11
2024-05-09T14:50:28.054Z,24.38
2024-05-09T14:53:37.090Z,25.94
2024-05-09T14:56:39.297Z,25.91
2024-05-09T14:59:41.517Z,25.98
2024-05-09T15:02:43.733Z,25.42
2024-05-09T15:05:47.146Z,23.70
2024-05-09T15:08:56.885Z,22.80
2024-05-09T15:11:59.150Z,22.83
2024-05-09T15:15:01.326Z,22.25
2024-05-09T15:18:05.731Z,23.57
2024-05-09T15:21:08.310Z,24.26
2024-05-09T15:24:10.515Z,24.59
2024-05-09T15:27:13.092Z,25.22
2024-05-09T15:30:18.139Z,25.38
2024-05-09T15:33:23.008Z,25.43
2024-05-09T15:36:25.538Z,25.39
2024-05-09T15:39:30.420Z,25.06
2024-05-09T15:42:43.032Z,24.49
2024-05-09T15:45:48.041Z,23.94
2024-05-09T15:48:53.677Z,23.03
2024-05-09T15:51:56.550Z,22.31
2024-05-09T15:54:58.951Z,21.87
2024-05-09T15:58:02.648Z,21.42
2024-05-09T16:01:05.540Z,21.18
2024-05-09T16:04:09.948Z,21.18
2024-05-09T16:07:12.504Z,20.85
2024-05-09T16:10:20.258Z,21.39
2024-05-09T16:13:28.113Z,22.19
2024-05-09T16:16:30.361Z,22.14
2024-05-09T16:19:32.970Z,22.63
2024-05-09T16:22:37.870Z,22.64
2024-05-09T16:25:45.352Z,22.77
2024-05-09T16:28:48.942Z,23.01
2024-05-09T16:31:54.922Z,23.33
2024-05-09T16:34:57.140Z,22.19
2024-05-09T16:37:59.488Z,22.52
2024-05-09T16:41:01.806Z,22.39
2024-05-09T16:44:04.525Z,22.21
2024-05-09T16:47:06.610Z,21.93
2024-05-09T16:50:10.802Z,22.00
2024-05-09T16:53:19.344Z,22.04
2024-05-09T16:56:23.807Z,22.08
2024-05-09T16:59:26.246Z,22.06
2024-05-09T17:02:28.784Z,21.88
2024-05-09T17:05:31.297Z,21.73
2024-05-09T17:08:33.637Z,21.74
2024-05-09T17:11:36.072Z,21.46
2024-05-09T17:14:38.339Z,21.26
2024-05-09T17:17:40.893Z,21.18
2024-05-09T17:20:43.174Z,21.05
2024-05-09T17:23:45.517Z,21.02
2024-05-09T17:26:47.868Z,20.99
2024-05-09T17:29:50.926Z,20.61
2024-05-09T17:32:53.198Z,20.32
2024-05-09T17:35:55.535Z,20.09
2024-05-09T17:38:57.775Z,20.21
2024-05-09T17:42:00.023Z,20.21
2024-05-09T17:45:02.208Z,19.99
2024-05-09T17:48:05.045Z,19.70
2024-05-09T17:51:07.372Z,19.33
2024-05-09T17:54:09.633Z,19.11
2024-05-09T17:57:11.958Z,18.97
2024-05-09T18:00:17.467Z,18.71
2024-05-09T18:03:23.832Z,18.44
2024-05-09T18:06:26.214Z,18.22
2024-05-09T18:09:28.429Z,18.01
2024-05-09T18:12:30.672Z,17.87
2024-05-09T18:15:33.351Z,17.84
2024-05-09T18:18:36.152Z,17.64
2024-05-09T18:21:38.665Z,17.23
2024-05-09T18:24:41.221Z,17.22
2024-05-09T18:27:43.489Z,17.08
2024-05-09T18:30:45.867Z,16.92
2024-05-09T18:33:48.409Z,16.87
2024-05-09T18:36:50.868Z,16.65
2024-05-09T18:39:53.320Z,16.45
2024-05-09T18:42:55.692Z,16.12
2024-05-09T18:45:58.616Z,15.97
2024-05-09T18:49:01.246Z,15.82
2024-05-09T18:52:03.627Z,15.77
2024-05-09T18:55:06.628Z,15.63
2024-05-09T18:58:08.780Z,15.53
2024-05-09T19:01:11.687Z,15.35
2024-05-09T19:04:18.988Z,15.05
2024-05-09T19:07:21.887Z,14.83
2024-05-09T19:10:28.822Z,14.77
2024-05-09T19:13:35.585Z,14.71
2024-05-09T19:16:37.908Z,14.57
2024-05-09T19:19:40.355Z,14.33
2024-05-09T19:22:42.600Z,14.22
2024-05-09T19:25:44.792Z,14.02
2024-05-09T19:28:47.021Z,13.86
2024-05-09T19:31:49.636Z,13.77
2024-05-09T19:34:52.240Z,13.66
2024-05-09T19:37:54.839Z,13.73
2024-05-09T19:40:58.149Z,13.73
2024-05-09T19:44:02.049Z,13.49
2024-05-09T19:47:04.694Z,13.33
2024-05-09T19:50:13.881Z,13.35
2024-05-09T19:53:19.129Z,13.09
2024-05-09T19:56:24.409Z,13.06
2024-05-09T19:59:28.821Z,12.71
2024-05-09T20:02:34.362Z,12.69
2024-05-09T20:05:37.662Z,12.56
2024-05-09T20:08:40.543Z,12.64
2024-05-09T20:11:42.864Z,12.60
2024-05-09T20:14:45.159Z,12.47
2024-05-09T20:17:47.754Z,12.26
2024-05-09T20:20:53.380Z,12.30
2024-05-09T20:23:56.386Z,12.34
2024-05-09T20:26:58.683Z,12.41
2024-05-09T20:30:00.949Z,12.50
2024-05-09T20:33:05.024Z,12.32
2024-05-09T20:36:08.479Z,12.22
2024-05-09T20:39:10.615Z,12.09
2024-05-09T20:42:13.183Z,12.19
2024-05-09T20:45:15.586Z,12.29
2024-05-09T20:48:17.974Z,12.26
2024-05-09T20:51:20.233Z,12.34
2024-05-09T20:54:22.631Z,12.34
2024-05-09T20:57:25.078Z,12.28
2024-05-09T21:00:35.197Z,12.06
2024-05-09T21:03:42.291Z,12.05
2024-05-09T21:06:44.623Z,11.95
2024-05-09T21:09:47.816Z,11.79
2024-05-09T21:12:50.137Z,11.85
2024-05-09T21:15:52.344Z,11.78
2024-05-09T21:18:58.594Z,11.77
2024-05-09T21:22:00.818Z,11.70
2024-05-09T21:25:03.009Z,11.66
2024-05-09T21:28:05.755Z,11.54
2024-05-09T21:31:09.271Z,11.49
2024-05-09T21:34:11.873Z,11.44
2024-05-09T21:37:14.662Z,11.40
2024-05-09T21:40:27.026Z,11.30
2024-05-09T21:43:35.721Z,11.23
2024-05-09T21:46:37.996Z,11.29
2024-05-09T21:49:43.123Z,11.22
2024-05-09T21:52:45.396Z,11.15
2024-05-09T21:55:47.838Z,11.08
2024-05-09T21:58:50.174Z,10.94
2024-05-09T22:01:52.430Z,10.88
2024-05-09T22:04:54.749Z,10.78
2024-05-09T22:07:57.287Z,10.68
2024-05-09T22:10:59.904Z,10.68
2024-05-09T22:14:02.256Z,10.84
2024-05-09T22:17:04.830Z,10.88
2024-05-09T22:20:18.077Z,10.68
2024-05-09T22:23:24.507Z,10.68
2024-05-09T22:26:26.703Z,10.78
2024-05-09T22:29:28.880Z,10.84
2024-05-09T22:32:31.298Z,10.67
2024-05-09T22:35:33.564Z,10.53
2024-05-09T22:38:36.736Z,10.36
2024-05-09T22:41:41.046Z,10.33
2024-05-09T22:44:43.229Z,10.36
2024-05-09T22:47:45.983Z,10.36
2024-05-09T22:50:48.654Z,10.23
2024-05-09T22:53:50.957Z,10.16
2024-05-09T22:56:53.648Z,10.10
2024-05-09T22:59:55.854Z,10.05
2024-05-09T23:02:58.109Z,9.95
2024-05-09T23:06:00.534Z,9.81
2024-05-09T23:09:03.074Z,9.77
2024-05-09T23:12:05.780Z,9.71
2024-05-09T23:15:08.221Z,9.65
2024-05-09T23:18:10.746Z,9.60
2024-05-09T23:21:13.161Z,9.58
2024-05-09T23:24:15.342Z,9.60
2024-05-09T23:27:17.783Z,9.46
2024-05-09T23:30:29.215Z,9.32
2024-05-09T23:33:46.124Z,9.26
2024-05-09T23:36:48.568Z,9.16
2024-05-09T23:39:50.825Z,9.01
2024-05-09T23:42:53.008Z,8.92
2024-05-09T23:45:55.454Z,8.82
2024-05-09T23:48:57.905Z,8.84
2024-05-09T23:52:00.287Z,8.77
2024-05-09T23:55:02.629Z,8.64
2024-05-09T23:58:05.105Z,8.61
